ADDS METAR Data INFO
IDs: Format: Raw Decoded Include TAF

Data at: 0202 UTC 17 Oct 2017

KACB 170153Z AUTO 19003KT 10SM CLR 08/03 A3014 RMK AO2 T00770034
KACB 170133Z AUTO 00000KT 10SM CLR 08/03 A3014 RMK AO2 T00770033
KACB 170112Z AUTO 18003KT 10SM CLR 08/04 A3014 RMK AO2 T00770036
KACB 170053Z AUTO 00000KT 10SM CLR 08/03 A3015 RMK AO2 T00770034
KACB 170033Z AUTO 17003KT 10SM CLR 09/03 A3015 RMK AO2 T00860031
KACB 170012Z AUTO 17005KT 10SM CLR 09/04 A3015 RMK AO2 T00900037
KACB 162353Z AUTO 00000KT 10SM CLR 10/04 A3016 RMK AO2 T00950039 10130 20095
KACB 162333Z AUTO 00000KT 10SM CLR 10/04 A3016 RMK AO2 T01000038
KACB 162312Z AUTO 00000KT 10SM CLR 10/04 A3017 RMK AO2 T01000037
KACB 162253Z AUTO 00000KT 10SM CLR 10/03 A3017 RMK AO2 T01010034
KACB 162233Z AUTO 00000KT 10SM CLR 10/03 A3017 RMK AO2 T01040030
KACB 162212Z AUTO 23003KT 10SM CLR 11/02 A3017 RMK AO2 T01100024
KACB 162153Z AUTO 23005KT 10SM CLR 12/02 A3017 RMK AO2 T01160020
KACB 162132Z AUTO 26004KT 10SM CLR 12/03 A3017 RMK AO2 T01230025
KACB 162113Z AUTO 25005KT 10SM SCT048 13/02 A3017 RMK AO2 T01250020
KACB 162053Z AUTO 24007KT 10SM SCT048 12/02 A3018 RMK AO2 T01200020
KACB 162032Z AUTO 24005KT 10SM SCT048 12/02 A3018 RMK AO2 T01220021
KACB 162013Z AUTO 23009KT 10SM CLR 12/02 A3018 RMK AO2 T01210020
KACB 161953Z AUTO 25009KT 220V290 10SM CLR 12/02 A3018 RMK AO2 T01230022
KACB 161932Z AUTO 24005KT 10SM SCT040 SCT046 SCT065 12/03 A3018 RMK AO2 T01200027
KACB 161913Z AUTO 23010G18KT 10SM SCT042 SCT050 OVC065 13/03 A3019 RMK AO2 T01290032
KACB 161853Z AUTO 24008G15KT 210V270 10SM SCT035 SCT042 BKN050 13/03 A3018 RMK AO2 T01300034
KACB 161832Z AUTO 23006KT 10SM BKN035 BKN042 BKN075 13/04 A3019 RMK AO2 T01270038
KACB 161813Z AUTO 21010G18KT 10SM BKN035 BKN044 13/03 A3020 RMK AO2 T01270034
KACB 161753Z AUTO 21005KT 10SM SCT033 BKN041 12/04 A3020 RMK AO2 T01160037 10122 21015
KACB 161732Z AUTO 22006KT 10SM BKN033 BKN075 11/04 A3021 RMK AO2 T01130035
KACB 161713Z AUTO 19009G16KT 10SM BKN033 BKN039 OVC075 12/04 A3022 RMK AO2 T01210037
KACB 161653Z AUTO 20006KT 10SM BKN031 12/04 A3022 RMK AO2 T01200038
KACB 161632Z AUTO 21008KT 170V230 10SM SCT029 11/04 A3023 RMK AO2 T01100040
KACB 161613Z AUTO 20007KT 10SM SCT080 11/04 A3024 RMK AO2 T01060036
KACB 161553Z AUTO 20004KT 10SM BKN080 10/04 A3024 RMK AO2 T01020037
KACB 161532Z AUTO 20006KT 10SM BKN080 09/03 A3025 RMK AO2 T00910034
KACB 161513Z AUTO 17008KT 10SM SCT080 08/03 A3025 RMK AO2 T00830031
KACB 161453Z AUTO 18006KT 10SM CLR 08/03 A3024 RMK AO2 T00770027
KACB 161432Z AUTO 19006KT 10SM SCT050 SCT080 SCT110 07/03 A3025 RMK AO2 T00670025
KACB 161413Z AUTO 20005KT 10SM SCT055 BKN080 OVC110 06/02 A3025 RMK AO2 T00560021
KACB 161353Z AUTO 20005KT 10SM OVC080 06/03 A3025 RMK AO2 T00550030
KACB 161332Z AUTO 00000KT 10SM SCT090 03/02 A3025 RMK AO2 T00280021
KACB 161313Z AUTO 00000KT 10SM CLR 01/00 A3025 RMK AO2 T00100004
KACB 161253Z AUTO 00000KT 10SM CLR 00/00 A3025 RMK AO2 T00001005
KACB 161232Z AUTO 00000KT 10SM CLR M01/M01 A3025 RMK AO2 T10081013
KACB 161213Z AUTO 00000KT 10SM SCT002 M01/M02 A3025 RMK AO2 T10151020
KACB 161153Z AUTO 00000KT 10SM CLR M01/M02 A3025 RMK AO2 T10151020 10005 21016
KACB 161132Z AUTO 00000KT 10SM CLR M01/M02 A3025 RMK AO2 T10131018
KACB 161113Z AUTO 00000KT 10SM CLR M01/M01 A3025 RMK AO2 T10101015
KACB 161052Z AUTO 00000KT 7SM CLR M01/M01 A3025 RMK AO2 T10061011
KACB 161032Z AUTO 00000KT 10SM CLR M01/M01 A3024 RMK AO2 T10091014
KACB 161013Z AUTO 00000KT 10SM CLR M01/M02 A3024 RMK AO2 T10131018
KACB 160952Z AUTO 00000KT 10SM CLR M01/M01 A3022 RMK AO2 T10071012
KACB 160932Z AUTO 00000KT 5SM BR CLR M01/M01 A3022 RMK AO2 T10091014
KACB 160913Z AUTO 00000KT 10SM CLR M01/M01 A3022 RMK AO2 T10091014
KACB 160852Z AUTO 00000KT 10SM CLR M01/M01 A3021 RMK AO2 T10071012
KACB 160832Z AUTO 00000KT 10SM CLR M01/M01 A3021 RMK AO2 T10081013
KACB 160813Z AUTO 00000KT 10SM CLR 00/M01 A3020 RMK AO2 T10051010
KACB 160752Z AUTO 00000KT 10SM CLR 00/M01 A3021 RMK AO2 T10041009
KACB 160732Z AUTO 00000KT 7SM CLR 00/M01 A3020 RMK AO2 T10041009
KACB 160713Z AUTO 00000KT 10SM CLR 00/M01 A3020 RMK AO2 T10011007
KACB 160652Z AUTO 00000KT 7SM CLR 00/M01 A3020 RMK AO2 T10021008
KACB 160632Z AUTO 00000KT 10SM CLR 00/M01 A3020 RMK AO2 T10021007
KACB 160613Z AUTO 00000KT 10SM CLR 01/00 A3020 RMK AO2 T00050000
KACB 160552Z AUTO 00000KT 10SM CLR 00/00 A3019 RMK AO2 T00011002 10078 20001 401810001
KACB 160532Z AUTO 00000KT 7SM CLR 00/00 A3019 RMK AO2 T00030000
KACB 160513Z AUTO 00000KT 10SM CLR 01/00 A3018 RMK AO2 T00060000
KACB 160452Z AUTO 00000KT 10SM CLR 01/00 A3018 RMK AO2 T00070000
KACB 160432Z AUTO 00000KT 10SM CLR 01/00 A3018 RMK AO2 T00120004
KACB 160413Z AUTO 00000KT 10SM CLR 02/01 A3018 RMK AO2 T00150005
KACB 160352Z AUTO 00000KT 10SM CLR 02/01 A3018 RMK AO2 T00210011
KACB 160332Z AUTO 00000KT 10SM CLR 02/01 A3018 RMK AO2 T00210010
KACB 160313Z AUTO 00000KT 10SM CLR 03/01 A3017 RMK AO2 T00260014
KACB 160252Z AUTO 00000KT 10SM CLR 03/02 A3017 RMK AO2 T00330018
KACB 160233Z AUTO 00000KT 10SM CLR 03/01 A3016 RMK AO2 T00330014
KACB 160213Z AUTO 00000KT 10SM SCT034 04/01 A3016 RMK AO2 T00430013
KACB 160152Z AUTO 00000KT 10SM SCT034 BKN039 06/01 A3015 RMK AO2 T00570012
KACB 160133Z AUTO 00000KT 10SM CLR 07/01 A3014 RMK AO2 T00680008
KACB 160113Z AUTO 35003KT 10SM SCT043 07/01 A3013 RMK AO2 T00710014
KACB 160052Z AUTO 35003KT 10SM SCT034 OVC043 08/02 A3013 RMK AO2 T00750018
KACB 160033Z AUTO 34006KT 10SM BKN032 OVC043 08/03 A3012 RMK AO2 T00770028
KACB 160013Z AUTO 00000KT 10SM BKN032 OVC046 08/03 A3012 RMK AO2 T00750030
KACB 152352Z AUTO 33003KT 10SM SCT034 BKN044 08/03 A3010 RMK AO2 T00750025 10098 20074
KACB 152333Z AUTO 31003KT 10SM CLR 08/03 A3008 RMK AO2 T00750027
KACB 152313Z AUTO 31006KT 10SM CLR 08/03 A3007 RMK AO2 T00770033
KACB 152252Z AUTO 00000KT 10SM CLR 08/05 A3005 RMK AO2 T00800047
KACB 152233Z AUTO 31003KT 10SM SCT031 SCT036 SCT048 08/05 A3004 RMK AO2 T00820052
KACB 152213Z AUTO 31004KT 10SM BKN030 BKN048 08/05 A3002 RMK AO2 T00820052
KACB 152152Z AUTO 31005G14KT 10SM -RA BKN028 OVC037 09/05 A3001 RMK AO2 T00910046
KACB 152133Z AUTO 34005KT 10SM BKN028 BKN033 BKN041 10/05 A3000 RMK AO2 T00950045
KACB 152113Z AUTO 34003KT 10SM SCT024 BKN044 10/05 A2998 RMK AO2 T00970050
KACB 152052Z AUTO 34006G17KT 10SM BKN022 OVC042 09/05 A2997 RMK AO2 T00940050
KACB 152033Z AUTO 35005KT 10SM SCT022 BKN027 OVC048 10/05 A2996 RMK AO2 T00950053
KACB 152013Z AUTO 33006G19KT 10SM SCT023 SCT036 OVC047 09/05 A2995 RMK AO2 T00900050
KACB 151952Z AUTO 34007G16KT 310V020 10SM SCT017 BKN025 OVC045 09/06 A2994 RMK AO2 T00910057
KACB 151933Z AUTO 32004G14KT 10SM BKN017 OVC024 09/06 A2993 RMK AO2 T00890062
KACB 151912Z AUTO 33007G18KT 290V360 10SM BKN019 OVC025 09/07 A2990 RMK AO2 T00880065
KACB 151852Z AUTO 33005G15KT 10SM BKN019 BKN030 OVC035 09/07 A2989 RMK AO2 T00850066
KACB 151833Z AUTO 34008G19KT 310V020 10SM -RA BKN018 OVC029 08/06 A2987 RMK AO2 T00810062
KACB 151812Z AUTO 33009G16KT 300V360 5SM -RA BKN014 BKN020 OVC026 08/06 A2986 RMK AO2 T00800064
KACB 151752Z AUTO 33009G17KT 300V360 3SM RA OVC013 08/06 A2984 RMK AO2 T00770064 10173 20076
KACB 151733Z AUTO 33009G17KT 310V010 5SM UP OVC013 08/06 A2982 RMK AO2 T00770060
KACB 151712Z AUTO 33010G20KT 290V350 7SM OVC013 08/06 A2980 RMK AO2 T00770062
KACB 151653Z AUTO 33009G18KT 3SM -RA OVC011 08/07 A2977 RMK AO2 T00780065
KACB 151633Z AUTO 33007G18KT 290V360 3SM DZ OVC011 08/07 A2975 RMK AO2 T00800066
KACB 151612Z AUTO 33005G18KT 3SM DZ OVC011 09/07 A2971 RMK AO2 T00850071
KACB 151553Z AUTO 33010G15KT 4SM DZ BKN011 OVC014 09/08 A2969 RMK AO2 T00920078
KACB 151533Z AUTO 35008G18KT 7SM OVC011 10/08 A2966 RMK AO2 T00960082
KACB 151512Z AUTO 33008KT 4SM -RA OVC009 10/09 A2964 RMK AO2 T00990087
KACB 151453Z AUTO 34006KT 3SM -DZ BKN009 OVC014 10/09 A2963 RMK AO2 T01000090
KACB 151433Z AUTO 34005KT 2SM RA OVC009 10/09 A2963 RMK AO2 T01020091
KACB 151412Z AUTO 33005KT 2 1/2SM RA OVC009 11/10 A2962 RMK AO2 T01060096